sensor_id;sensor_type;location;lat;lon;timestamp;P1;durP1;ratioP1;P2;durP2;ratioP2
42006;SDS011;27696;42.704;23.304;2023-03-03T00:00:42;5.30;;;4.72;;
42006;SDS011;27696;42.704;23.304;2023-03-03T00:03:08;5.78;;;4.40;;
42006;SDS011;27696;42.704;23.304;2023-03-03T00:05:35;5.10;;;4.53;;
42006;SDS011;27696;42.704;23.304;2023-03-03T00:08:01;4.97;;;4.45;;
42006;SDS011;27696;42.704;23.304;2023-03-03T00:10:27;4.70;;;4.30;;
42006;SDS011;27696;42.704;23.304;2023-03-03T00:12:53;6.50;;;5.53;;
42006;SDS011;27696;42.704;23.304;2023-03-03T00:15:20;5.68;;;4.85;;
42006;SDS011;27696;42.704;23.304;2023-03-03T00:17:47;7.30;;;5.13;;
42006;SDS011;27696;42.704;23.304;2023-03-03T00:20:25;7.05;;;5.13;;
42006;SDS011;27696;42.704;23.304;2023-03-03T00:22:53;6.70;;;6.00;;
42006;SDS011;27696;42.704;23.304;2023-03-03T00:25:29;6.15;;;5.50;;
42006;SDS011;27696;42.704;23.304;2023-03-03T00:28:06;6.35;;;5.75;;
42006;SDS011;27696;42.704;23.304;2023-03-03T00:30:34;7.82;;;5.97;;
42006;SDS011;27696;42.704;23.304;2023-03-03T00:32:59;6.45;;;5.85;;
42006;SDS011;27696;42.704;23.304;2023-03-03T00:35:26;6.78;;;5.78;;
42006;SDS011;27696;42.704;23.304;2023-03-03T00:38:00;6.93;;;6.22;;
42006;SDS011;27696;42.704;23.304;2023-03-03T00:40:37;7.43;;;6.65;;
42006;SDS011;27696;42.704;23.304;2023-03-03T00:43:20;9.63;;;7.15;;
42006;SDS011;27696;42.704;23.304;2023-03-03T00:45:55;8.32;;;6.43;;
42006;SDS011;27696;42.704;23.304;2023-03-03T00:50:52;10.27;;;6.15;;
42006;SDS011;27696;42.704;23.304;2023-03-03T00:53:20;7.07;;;6.28;;
42006;SDS011;27696;42.704;23.304;2023-03-03T00:55:47;7.40;;;6.30;;
42006;SDS011;27696;42.704;23.304;2023-03-03T00:58:13;7.53;;;5.93;;
42006;SDS011;27696;42.704;23.304;2023-03-03T01:00:39;7.50;;;6.53;;
42006;SDS011;27696;42.704;23.304;2023-03-03T01:03:07;7.85;;;6.88;;
42006;SDS011;27696;42.704;23.304;2023-03-03T01:05:33;8.18;;;6.68;;
42006;SDS011;27696;42.704;23.304;2023-03-03T01:07:59;10.07;;;6.90;;
42006;SDS011;27696;42.704;23.304;2023-03-03T01:10:25;7.75;;;6.90;;
42006;SDS011;27696;42.704;23.304;2023-03-03T01:12:51;8.02;;;6.57;;
42006;SDS011;27696;42.704;23.304;2023-03-03T01:15:17;7.97;;;7.00;;
42006;SDS011;27696;42.704;23.304;2023-03-03T01:17:42;7.25;;;6.20;;
42006;SDS011;27696;42.704;23.304;2023-03-03T01:20:08;7.70;;;6.78;;
42006;SDS011;27696;42.704;23.304;2023-03-03T01:22:35;7.90;;;6.82;;
42006;SDS011;27696;42.704;23.304;2023-03-03T01:25:01;7.40;;;6.38;;
42006;SDS011;27696;42.704;23.304;2023-03-03T01:27:28;9.70;;;7.00;;
42006;SDS011;27696;42.704;23.304;2023-03-03T01:29:54;8.15;;;6.90;;
42006;SDS011;27696;42.704;23.304;2023-03-03T01:32:20;8.23;;;6.95;;
42006;SDS011;27696;42.704;23.304;2023-03-03T01:34:47;7.88;;;6.97;;
42006;SDS011;27696;42.704;23.304;2023-03-03T01:37:12;11.00;;;7.50;;
42006;SDS011;27696;42.704;23.304;2023-03-03T01:39:37;8.00;;;7.20;;
42006;SDS011;27696;42.704;23.304;2023-03-03T01:42:03;8.20;;;6.47;;
42006;SDS011;27696;42.704;23.304;2023-03-03T01:44:28;10.60;;;7.13;;
42006;SDS011;27696;42.704;23.304;2023-03-03T01:47:06;8.70;;;7.15;;
42006;SDS011;27696;42.704;23.304;2023-03-03T01:49:41;9.65;;;7.25;;
42006;SDS011;27696;42.704;23.304;2023-03-03T01:52:32;9.25;;;6.75;;
42006;SDS011;27696;42.704;23.304;2023-03-03T01:55:04;9.02;;;6.85;;
42006;SDS011;27696;42.704;23.304;2023-03-03T01:57:38;9.52;;;7.25;;
42006;SDS011;27696;42.704;23.304;2023-03-03T02:00:06;10.23;;;7.20;;
42006;SDS011;27696;42.704;23.304;2023-03-03T02:02:34;11.07;;;7.63;;
42006;SDS011;27696;42.704;23.304;2023-03-03T02:05:00;7.80;;;7.00;;
42006;SDS011;27696;42.704;23.304;2023-03-03T02:07:25;9.07;;;7.10;;
42006;SDS011;27696;42.704;23.304;2023-03-03T02:09:56;7.78;;;6.45;;
42006;SDS011;27696;42.704;23.304;2023-03-03T02:12:29;9.02;;;6.65;;
42006;SDS011;27696;42.704;23.304;2023-03-03T02:17:41;7.25;;;6.50;;
42006;SDS011;27696;42.704;23.304;2023-03-03T02:20:10;8.18;;;6.03;;
42006;SDS011;27696;42.704;23.304;2023-03-03T02:25:27;6.93;;;5.88;;
42006;SDS011;27696;42.704;23.304;2023-03-03T02:28:27;6.18;;;5.50;;
42006;SDS011;27696;42.704;23.304;2023-03-03T02:30:55;8.57;;;5.93;;
42006;SDS011;27696;42.704;23.304;2023-03-03T02:33:21;9.20;;;5.82;;
42006;SDS011;27696;42.704;23.304;2023-03-03T02:35:47;5.30;;;4.63;;
42006;SDS011;27696;42.704;23.304;2023-03-03T02:41:04;12.10;;;6.55;;
42006;SDS011;27696;42.704;23.304;2023-03-03T02:43:38;7.95;;;6.45;;
42006;SDS011;27696;42.704;23.304;2023-03-03T02:46:17;10.55;;;7.03;;
42006;SDS011;27696;42.704;23.304;2023-03-03T02:48:43;9.40;;;6.43;;
42006;SDS011;27696;42.704;23.304;2023-03-03T02:51:08;7.65;;;6.85;;
42006;SDS011;27696;42.704;23.304;2023-03-03T02:53:34;7.85;;;7.03;;
42006;SDS011;27696;42.704;23.304;2023-03-03T02:55:59;9.05;;;7.95;;
42006;SDS011;27696;42.704;23.304;2023-03-03T02:58:25;7.82;;;7.03;;
42006;SDS011;27696;42.704;23.304;2023-03-03T03:00:50;8.77;;;7.55;;
42006;SDS011;27696;42.704;23.304;2023-03-03T03:03:15;9.20;;;7.38;;
42006;SDS011;27696;42.704;23.304;2023-03-03T03:05:41;8.52;;;7.05;;
42006;SDS011;27696;42.704;23.304;2023-03-03T03:08:06;9.88;;;7.97;;
42006;SDS011;27696;42.704;23.304;2023-03-03T03:10:32;9.93;;;8.30;;
42006;SDS011;27696;42.704;23.304;2023-03-03T03:12:57;9.43;;;8.30;;
42006;SDS011;27696;42.704;23.304;2023-03-03T03:15:22;8.70;;;7.80;;
42006;SDS011;27696;42.704;23.304;2023-03-03T03:17:48;9.38;;;8.40;;
42006;SDS011;27696;42.704;23.304;2023-03-03T03:20:13;9.02;;;8.13;;
42006;SDS011;27696;42.704;23.304;2023-03-03T03:22:39;10.65;;;8.98;;
42006;SDS011;27696;42.704;23.304;2023-03-03T03:25:04;12.55;;;9.05;;
42006;SDS011;27696;42.704;23.304;2023-03-03T03:27:30;10.07;;;8.95;;
42006;SDS011;27696;42.704;23.304;2023-03-03T03:29:56;11.10;;;9.48;;
42006;SDS011;27696;42.704;23.304;2023-03-03T03:32:21;10.88;;;9.45;;
42006;SDS011;27696;42.704;23.304;2023-03-03T03:34:47;11.75;;;8.85;;
42006;SDS011;27696;42.704;23.304;2023-03-03T03:37:12;9.95;;;8.68;;
42006;SDS011;27696;42.704;23.304;2023-03-03T03:39:38;10.13;;;8.75;;
42006;SDS011;27696;42.704;23.304;2023-03-03T03:42:03;11.23;;;9.00;;
42006;SDS011;27696;42.704;23.304;2023-03-03T03:44:29;12.10;;;9.38;;
42006;SDS011;27696;42.704;23.304;2023-03-03T03:46:54;13.00;;;10.00;;
42006;SDS011;27696;42.704;23.304;2023-03-03T03:49:20;10.98;;;9.18;;
42006;SDS011;27696;42.704;23.304;2023-03-03T03:51:45;10.05;;;8.80;;
42006;SDS011;27696;42.704;23.304;2023-03-03T03:54:11;10.20;;;8.98;;
42006;SDS011;27696;42.704;23.304;2023-03-03T03:56:36;12.63;;;9.82;;
42006;SDS011;27696;42.704;23.304;2023-03-03T03:59:02;14.30;;;11.27;;
42006;SDS011;27696;42.704;23.304;2023-03-03T04:01:30;12.43;;;10.32;;
42006;SDS011;27696;42.704;23.304;2023-03-03T04:03:55;13.00;;;10.45;;
42006;SDS011;27696;42.704;23.304;2023-03-03T04:06:21;11.07;;;9.73;;
42006;SDS011;27696;42.704;23.304;2023-03-03T04:08:46;13.00;;;11.13;;
42006;SDS011;27696;42.704;23.304;2023-03-03T04:11:11;13.10;;;10.70;;
42006;SDS011;27696;42.704;23.304;2023-03-03T04:13:37;12.40;;;10.27;;
42006;SDS011;27696;42.704;23.304;2023-03-03T04:16:02;12.95;;;11.00;;
42006;SDS011;27696;42.704;23.304;2023-03-03T04:18:28;12.50;;;10.75;;
42006;SDS011;27696;42.704;23.304;2023-03-03T04:20:53;12.63;;;10.85;;
42006;SDS011;27696;42.704;23.304;2023-03-03T04:23:19;15.57;;;12.05;;
42006;SDS011;27696;42.704;23.304;2023-03-03T04:25:45;12.38;;;10.48;;
42006;SDS011;27696;42.704;23.304;2023-03-03T04:28:12;13.65;;;10.95;;
42006;SDS011;27696;42.704;23.304;2023-03-03T04:30:38;13.40;;;11.30;;
42006;SDS011;27696;42.704;23.304;2023-03-03T04:33:04;15.73;;;12.20;;
42006;SDS011;27696;42.704;23.304;2023-03-03T04:35:30;16.95;;;14.40;;
42006;SDS011;27696;42.704;23.304;2023-03-03T04:37:55;16.50;;;13.95;;
42006;SDS011;27696;42.704;23.304;2023-03-03T04:40:20;15.23;;;13.43;;
42006;SDS011;27696;42.704;23.304;2023-03-03T04:42:46;14.80;;;12.23;;
42006;SDS011;27696;42.704;23.304;2023-03-03T04:45:11;14.48;;;12.35;;
42006;SDS011;27696;42.704;23.304;2023-03-03T04:47:37;15.60;;;13.02;;
42006;SDS011;27696;42.704;23.304;2023-03-03T04:50:02;15.88;;;13.00;;
42006;SDS011;27696;42.704;23.304;2023-03-03T04:52:28;15.77;;;12.38;;
42006;SDS011;27696;42.704;23.304;2023-03-03T04:54:53;14.85;;;12.85;;
42006;SDS011;27696;42.704;23.304;2023-03-03T04:57:19;19.15;;;14.60;;
42006;SDS011;27696;42.704;23.304;2023-03-03T04:59:44;17.60;;;14.43;;
42006;SDS011;27696;42.704;23.304;2023-03-03T05:02:09;17.48;;;13.80;;
42006;SDS011;27696;42.704;23.304;2023-03-03T05:04:36;18.08;;;14.07;;
42006;SDS011;27696;42.704;23.304;2023-03-03T05:07:02;18.45;;;14.52;;
42006;SDS011;27696;42.704;23.304;2023-03-03T05:09:28;17.55;;;14.25;;
42006;SDS011;27696;42.704;23.304;2023-03-03T05:11:53;18.73;;;14.43;;
42006;SDS011;27696;42.704;23.304;2023-03-03T05:14:19;18.85;;;14.77;;
42006;SDS011;27696;42.704;23.304;2023-03-03T05:16:44;18.05;;;14.50;;
42006;SDS011;27696;42.704;23.304;2023-03-03T05:19:11;20.85;;;15.73;;
42006;SDS011;27696;42.704;23.304;2023-03-03T05:21:36;21.60;;;15.98;;
42006;SDS011;27696;42.704;23.304;2023-03-03T05:24:06;22.30;;;16.70;;
42006;SDS011;27696;42.704;23.304;2023-03-03T05:26:32;21.60;;;16.85;;
42006;SDS011;27696;42.704;23.304;2023-03-03T05:28:57;18.80;;;14.82;;
42006;SDS011;27696;42.704;23.304;2023-03-03T05:31:23;21.55;;;15.63;;
42006;SDS011;27696;42.704;23.304;2023-03-03T05:33:51;19.58;;;14.88;;
42006;SDS011;27696;42.704;23.304;2023-03-03T05:36:16;19.05;;;14.90;;
42006;SDS011;27696;42.704;23.304;2023-03-03T05:38:42;21.92;;;17.38;;
42006;SDS011;27696;42.704;23.304;2023-03-03T05:41:07;21.85;;;16.02;;
42006;SDS011;27696;42.704;23.304;2023-03-03T05:43:33;21.52;;;15.85;;
42006;SDS011;27696;42.704;23.304;2023-03-03T05:45:58;20.98;;;17.30;;
42006;SDS011;27696;42.704;23.304;2023-03-03T05:48:24;23.77;;;17.10;;
42006;SDS011;27696;42.704;23.304;2023-03-03T05:50:50;22.75;;;16.27;;
42006;SDS011;27696;42.704;23.304;2023-03-03T05:53:16;21.40;;;16.60;;
42006;SDS011;27696;42.704;23.304;2023-03-03T05:55:41;21.27;;;15.60;;
42006;SDS011;27696;42.704;23.304;2023-03-03T05:58:07;20.45;;;16.20;;
42006;SDS011;27696;42.704;23.304;2023-03-03T06:00:32;21.40;;;15.25;;
42006;SDS011;27696;42.704;23.304;2023-03-03T06:02:57;20.30;;;16.00;;
42006;SDS011;27696;42.704;23.304;2023-03-03T06:05:23;19.08;;;15.48;;
42006;SDS011;27696;42.704;23.304;2023-03-03T06:07:48;19.33;;;14.57;;
42006;SDS011;27696;42.704;23.304;2023-03-03T06:10:14;18.67;;;15.00;;
42006;SDS011;27696;42.704;23.304;2023-03-03T06:12:39;20.23;;;15.73;;
42006;SDS011;27696;42.704;23.304;2023-03-03T06:15:06;18.63;;;15.25;;
42006;SDS011;27696;42.704;23.304;2023-03-03T06:17:32;20.42;;;14.95;;
42006;SDS011;27696;42.704;23.304;2023-03-03T06:19:57;21.15;;;14.50;;
42006;SDS011;27696;42.704;23.304;2023-03-03T06:22:23;20.20;;;14.15;;
42006;SDS011;27696;42.704;23.304;2023-03-03T06:24:48;17.90;;;14.48;;
42006;SDS011;27696;42.704;23.304;2023-03-03T06:27:14;17.55;;;14.45;;
42006;SDS011;27696;42.704;23.304;2023-03-03T06:29:39;17.10;;;14.25;;
42006;SDS011;27696;42.704;23.304;2023-03-03T06:32:04;17.15;;;13.68;;
42006;SDS011;27696;42.704;23.304;2023-03-03T06:34:30;19.05;;;13.63;;
42006;SDS011;27696;42.704;23.304;2023-03-03T06:36:55;20.02;;;14.27;;
42006;SDS011;27696;42.704;23.304;2023-03-03T06:39:21;18.38;;;14.35;;
42006;SDS011;27696;42.704;23.304;2023-03-03T06:41:46;16.65;;;14.13;;
42006;SDS011;27696;42.704;23.304;2023-03-03T06:44:12;17.20;;;14.13;;
42006;SDS011;27696;42.704;23.304;2023-03-03T06:46:37;20.17;;;14.15;;
42006;SDS011;27696;42.704;23.304;2023-03-03T06:49:03;25.52;;;13.27;;
42006;SDS011;27696;42.704;23.304;2023-03-03T06:51:30;23.33;;;13.88;;
42006;SDS011;27696;42.704;23.304;2023-03-03T06:53:59;22.85;;;15.85;;
42006;SDS011;27696;42.704;23.304;2023-03-03T06:56:26;25.13;;;16.42;;
42006;SDS011;27696;42.704;23.304;2023-03-03T06:58:53;36.55;;;25.00;;
42006;SDS011;27696;42.704;23.304;2023-03-03T07:01:20;17.73;;;14.68;;
42006;SDS011;27696;42.704;23.304;2023-03-03T07:03:46;20.58;;;13.88;;
42006;SDS011;27696;42.704;23.304;2023-03-03T07:06:20;16.40;;;13.68;;
42006;SDS011;27696;42.704;23.304;2023-03-03T07:08:47;17.67;;;13.40;;
42006;SDS011;27696;42.704;23.304;2023-03-03T07:11:14;16.35;;;11.77;;
42006;SDS011;27696;42.704;23.304;2023-03-03T07:14:00;15.13;;;11.95;;
42006;SDS011;27696;42.704;23.304;2023-03-03T07:16:26;14.73;;;12.05;;
42006;SDS011;27696;42.704;23.304;2023-03-03T07:21:36;13.80;;;11.38;;
42006;SDS011;27696;42.704;23.304;2023-03-03T07:26:49;16.27;;;12.55;;
42006;SDS011;27696;42.704;23.304;2023-03-03T07:29:25;31.35;;;25.73;;
42006;SDS011;27696;42.704;23.304;2023-03-03T07:31:52;28.25;;;24.05;;
42006;SDS011;27696;42.704;23.304;2023-03-03T07:34:23;20.83;;;17.13;;
42006;SDS011;27696;42.704;23.304;2023-03-03T07:42:45;15.73;;;12.40;;
42006;SDS011;27696;42.704;23.304;2023-03-03T07:45:27;14.43;;;11.40;;
42006;SDS011;27696;42.704;23.304;2023-03-03T07:47:57;14.23;;;11.75;;
42006;SDS011;27696;42.704;23.304;2023-03-03T07:50:33;14.52;;;12.18;;
42006;SDS011;27696;42.704;23.304;2023-03-03T07:52:59;17.88;;;13.32;;
42006;SDS011;27696;42.704;23.304;2023-03-03T08:03:04;15.45;;;12.82;;
42006;SDS011;27696;42.704;23.304;2023-03-03T08:05:39;16.65;;;12.88;;
42006;SDS011;27696;42.704;23.304;2023-03-03T08:10:55;17.40;;;13.93;;
42006;SDS011;27696;42.704;23.304;2023-03-03T08:13:23;18.77;;;12.85;;
42006;SDS011;27696;42.704;23.304;2023-03-03T08:15:51;16.02;;;13.43;;
42006;SDS011;27696;42.704;23.304;2023-03-03T08:18:29;16.10;;;14.20;;
42006;SDS011;27696;42.704;23.304;2023-03-03T08:20:59;17.10;;;14.00;;
42006;SDS011;27696;42.704;23.304;2023-03-03T08:23:27;16.75;;;13.65;;
42006;SDS011;27696;42.704;23.304;2023-03-03T08:25:52;16.85;;;14.75;;
42006;SDS011;27696;42.704;23.304;2023-03-03T08:28:18;17.90;;;14.77;;
42006;SDS011;27696;42.704;23.304;2023-03-03T08:30:45;16.67;;;14.43;;
42006;SDS011;27696;42.704;23.304;2023-03-03T08:33:11;19.65;;;14.18;;
42006;SDS011;27696;42.704;23.304;2023-03-03T08:35:37;17.60;;;15.18;;
42006;SDS011;27696;42.704;23.304;2023-03-03T08:38:02;18.83;;;14.13;;
42006;SDS011;27696;42.704;23.304;2023-03-03T08:40:28;19.88;;;14.93;;
42006;SDS011;27696;42.704;23.304;2023-03-03T08:42:54;18.38;;;15.20;;
42006;SDS011;27696;42.704;23.304;2023-03-03T08:45:19;18.17;;;14.48;;
42006;SDS011;27696;42.704;23.304;2023-03-03T08:47:45;16.58;;;13.88;;
42006;SDS011;27696;42.704;23.304;2023-03-03T08:50:11;17.55;;;14.13;;
42006;SDS011;27696;42.704;23.304;2023-03-03T08:52:36;17.70;;;14.00;;
42006;SDS011;27696;42.704;23.304;2023-03-03T08:55:02;19.30;;;13.70;;
42006;SDS011;27696;42.704;23.304;2023-03-03T08:57:28;18.70;;;13.98;;
42006;SDS011;27696;42.704;23.304;2023-03-03T08:59:54;18.65;;;14.82;;
42006;SDS011;27696;42.704;23.304;2023-03-03T09:02:19;18.08;;;14.73;;
42006;SDS011;27696;42.704;23.304;2023-03-03T09:04:45;20.08;;;14.40;;
42006;SDS011;27696;42.704;23.304;2023-03-03T09:07:10;18.60;;;16.38;;
42006;SDS011;27696;42.704;23.304;2023-03-03T09:09:35;16.48;;;14.00;;
42006;SDS011;27696;42.704;23.304;2023-03-03T09:12:24;17.67;;;14.02;;
42006;SDS011;27696;42.704;23.304;2023-03-03T09:14:49;18.52;;;13.73;;
42006;SDS011;27696;42.704;23.304;2023-03-03T09:17:22;25.00;;;15.25;;
42006;SDS011;27696;42.704;23.304;2023-03-03T09:22:19;18.15;;;13.90;;
42006;SDS011;27696;42.704;23.304;2023-03-03T09:24:47;19.77;;;13.27;;
42006;SDS011;27696;42.704;23.304;2023-03-03T09:27:30;19.20;;;13.50;;
42006;SDS011;27696;42.704;23.304;2023-03-03T09:32:45;15.70;;;12.52;;
42006;SDS011;27696;42.704;23.304;2023-03-03T09:35:25;15.75;;;12.88;;
42006;SDS011;27696;42.704;23.304;2023-03-03T09:38:00;18.35;;;14.82;;
42006;SDS011;27696;42.704;23.304;2023-03-03T09:43:12;17.45;;;12.93;;
42006;SDS011;27696;42.704;23.304;2023-03-03T09:48:51;16.40;;;13.60;;
42006;SDS011;27696;42.704;23.304;2023-03-03T09:51:31;16.45;;;13.63;;
42006;SDS011;27696;42.704;23.304;2023-03-03T10:08:14;14.93;;;12.88;;
42006;SDS011;27696;42.704;23.304;2023-03-03T10:14:06;18.27;;;13.40;;
42006;SDS011;27696;42.704;23.304;2023-03-03T10:19:39;14.45;;;12.80;;
42006;SDS011;27696;42.704;23.304;2023-03-03T10:22:19;16.70;;;13.63;;
42006;SDS011;27696;42.704;23.304;2023-03-03T10:25:07;17.05;;;15.25;;
42006;SDS011;27696;42.704;23.304;2023-03-03T10:30:24;16.75;;;13.30;;
42006;SDS011;27696;42.704;23.304;2023-03-03T10:33:19;15.45;;;13.10;;
42006;SDS011;27696;42.704;23.304;2023-03-03T11:00:30;17.05;;;13.75;;
42006;SDS011;27696;42.704;23.304;2023-03-03T11:08:35;16.55;;;14.18;;
42006;SDS011;27696;42.704;23.304;2023-03-03T11:11:16;18.55;;;14.43;;
42006;SDS011;27696;42.704;23.304;2023-03-03T11:13:53;17.17;;;14.52;;
42006;SDS011;27696;42.704;23.304;2023-03-03T11:22:33;16.98;;;15.05;;
42006;SDS011;27696;42.704;23.304;2023-03-03T11:30:26;21.58;;;16.38;;
42006;SDS011;27696;42.704;23.304;2023-03-03T11:33:17;21.52;;;16.98;;
42006;SDS011;27696;42.704;23.304;2023-03-03T11:35:57;20.70;;;17.48;;
42006;SDS011;27696;42.704;23.304;2023-03-03T11:41:11;20.95;;;17.60;;
42006;SDS011;27696;42.704;23.304;2023-03-03T11:43:46;22.48;;;18.40;;
42006;SDS011;27696;42.704;23.304;2023-03-03T11:46:59;21.60;;;19.30;;
42006;SDS011;27696;42.704;23.304;2023-03-03T11:49:16;20.77;;;18.25;;
42006;SDS011;27696;42.704;23.304;2023-03-03T11:51:49;22.95;;;20.45;;
42006;SDS011;27696;42.704;23.304;2023-03-03T11:54:28;22.30;;;18.83;;
42006;SDS011;27696;42.704;23.304;2023-03-03T11:57:15;20.65;;;18.02;;
42006;SDS011;27696;42.704;23.304;2023-03-03T11:59:59;22.60;;;19.73;;
42006;SDS011;27696;42.704;23.304;2023-03-03T12:10:31;24.40;;;18.23;;
42006;SDS011;27696;42.704;23.304;2023-03-03T12:13:03;17.85;;;15.95;;
42006;SDS011;27696;42.704;23.304;2023-03-03T12:16:21;17.73;;;15.93;;
42006;SDS011;27696;42.704;23.304;2023-03-03T12:18:34;21.25;;;17.75;;
42006;SDS011;27696;42.704;23.304;2023-03-03T12:24:14;17.58;;;15.40;;
42006;SDS011;27696;42.704;23.304;2023-03-03T12:35:15;16.08;;;13.20;;
42006;SDS011;27696;42.704;23.304;2023-03-03T12:40:33;14.35;;;12.23;;
42006;SDS011;27696;42.704;23.304;2023-03-03T12:43:06;12.20;;;10.90;;
42006;SDS011;27696;42.704;23.304;2023-03-03T12:48:34;13.38;;;11.98;;
42006;SDS011;27696;42.704;23.304;2023-03-03T12:54:05;10.80;;;9.70;;
42006;SDS011;27696;42.704;23.304;2023-03-03T12:56:55;11.00;;;9.90;;
42006;SDS011;27696;42.704;23.304;2023-03-03T13:04:34;13.50;;;12.07;;
42006;SDS011;27696;42.704;23.304;2023-03-03T13:07:08;14.68;;;12.60;;
42006;SDS011;27696;42.704;23.304;2023-03-03T13:12:41;12.52;;;11.13;;
42006;SDS011;27696;42.704;23.304;2023-03-03T13:15:12;14.02;;;10.90;;
42006;SDS011;27696;42.704;23.304;2023-03-03T13:17:55;12.82;;;11.45;;
42006;SDS011;27696;42.704;23.304;2023-03-03T13:20:27;13.15;;;11.43;;
42006;SDS011;27696;42.704;23.304;2023-03-03T13:30:51;9.70;;;8.70;;
42006;SDS011;27696;42.704;23.304;2023-03-03T13:36:09;11.50;;;8.50;;
42006;SDS011;27696;42.704;23.304;2023-03-03T13:38:40;11.20;;;9.20;;
42006;SDS011;27696;42.704;23.304;2023-03-03T13:41:24;9.53;;;8.37;;
42006;SDS011;27696;42.704;23.304;2023-03-03T14:00:29;10.02;;;8.95;;
42006;SDS011;27696;42.704;23.304;2023-03-03T14:05:47;10.30;;;9.30;;
42006;SDS011;27696;42.704;23.304;2023-03-03T14:11:06;9.55;;;8.45;;
42006;SDS011;27696;42.704;23.304;2023-03-03T14:16:41;8.95;;;8.05;;
42006;SDS011;27696;42.704;23.304;2023-03-03T14:19:02;10.27;;;8.57;;
42006;SDS011;27696;42.704;23.304;2023-03-03T14:24:23;8.95;;;7.10;;
42006;SDS011;27696;42.704;23.304;2023-03-03T14:26:54;8.30;;;7.13;;
42006;SDS011;27696;42.704;23.304;2023-03-03T14:29:23;8.30;;;7.28;;
42006;SDS011;27696;42.704;23.304;2023-03-03T14:31:59;6.93;;;5.72;;
42006;SDS011;27696;42.704;23.304;2023-03-03T14:37:47;7.53;;;6.75;;
42006;SDS011;27696;42.704;23.304;2023-03-03T14:40:29;7.97;;;7.18;;
42006;SDS011;27696;42.704;23.304;2023-03-03T14:42:58;9.07;;;8.18;;
42006;SDS011;27696;42.704;23.304;2023-03-03T14:45:30;9.77;;;8.02;;
42006;SDS011;27696;42.704;23.304;2023-03-03T14:50:38;11.25;;;8.43;;
42006;SDS011;27696;42.704;23.304;2023-03-03T14:55:45;14.15;;;12.68;;
42006;SDS011;27696;42.704;23.304;2023-03-03T14:58:23;10.60;;;9.20;;
42006;SDS011;27696;42.704;23.304;2023-03-03T15:00:49;10.60;;;8.75;;
42006;SDS011;27696;42.704;23.304;2023-03-03T15:03:26;13.02;;;10.65;;
42006;SDS011;27696;42.704;23.304;2023-03-03T15:05:54;8.20;;;7.18;;
42006;SDS011;27696;42.704;23.304;2023-03-03T15:08:34;9.30;;;7.70;;
42006;SDS011;27696;42.704;23.304;2023-03-03T15:11:21;9.90;;;8.48;;
42006;SDS011;27696;42.704;23.304;2023-03-03T15:13:50;8.70;;;7.50;;
42006;SDS011;27696;42.704;23.304;2023-03-03T15:16:17;7.68;;;6.88;;
42006;SDS011;27696;42.704;23.304;2023-03-03T15:18:52;8.27;;;7.43;;
42006;SDS011;27696;42.704;23.304;2023-03-03T15:21:25;10.07;;;7.53;;
42006;SDS011;27696;42.704;23.304;2023-03-03T15:24:07;10.23;;;9.02;;
42006;SDS011;27696;42.704;23.304;2023-03-03T15:32:14;9.60;;;7.43;;
42006;SDS011;27696;42.704;23.304;2023-03-03T15:37:30;9.65;;;7.63;;
42006;SDS011;27696;42.704;23.304;2023-03-03T15:42:56;8.65;;;7.40;;
42006;SDS011;27696;42.704;23.304;2023-03-03T15:51:33;9.07;;;8.13;;
42006;SDS011;27696;42.704;23.304;2023-03-03T16:02:15;9.60;;;8.15;;
42006;SDS011;27696;42.704;23.304;2023-03-03T16:05:25;8.77;;;7.30;;
42006;SDS011;27696;42.704;23.304;2023-03-03T16:15:52;13.77;;;9.82;;
42006;SDS011;27696;42.704;23.304;2023-03-03T16:18:26;9.02;;;7.90;;
42006;SDS011;27696;42.704;23.304;2023-03-03T16:23:55;8.25;;;7.35;;
42006;SDS011;27696;42.704;23.304;2023-03-03T16:32:58;9.48;;;8.20;;
42006;SDS011;27696;42.704;23.304;2023-03-03T16:35:22;8.48;;;7.28;;
42006;SDS011;27696;42.704;23.304;2023-03-03T16:40:29;9.77;;;8.10;;
42006;SDS011;27696;42.704;23.304;2023-03-03T16:45:56;10.13;;;8.40;;
42006;SDS011;27696;42.704;23.304;2023-03-03T16:53:58;9.80;;;7.85;;
42006;SDS011;27696;42.704;23.304;2023-03-03T16:56:29;11.15;;;9.68;;
42006;SDS011;27696;42.704;23.304;2023-03-03T17:09:43;9.50;;;8.25;;
42006;SDS011;27696;42.704;23.304;2023-03-03T17:12:36;9.40;;;8.10;;
42006;SDS011;27696;42.704;23.304;2023-03-03T17:20:57;19.17;;;11.63;;
42006;SDS011;27696;42.704;23.304;2023-03-03T17:23:46;15.18;;;12.55;;
42006;SDS011;27696;42.704;23.304;2023-03-03T17:45:35;17.08;;;14.45;;
42006;SDS011;27696;42.704;23.304;2023-03-03T18:09:50;15.75;;;11.68;;
42006;SDS011;27696;42.704;23.304;2023-03-03T18:23:29;11.27;;;7.18;;
42006;SDS011;27696;42.704;23.304;2023-03-03T18:25:59;9.63;;;7.60;;
42006;SDS011;27696;42.704;23.304;2023-03-03T18:28:36;11.25;;;7.30;;
42006;SDS011;27696;42.704;23.304;2023-03-03T18:38:50;12.38;;;8.55;;
42006;SDS011;27696;42.704;23.304;2023-03-03T18:41:22;14.82;;;10.05;;
42006;SDS011;27696;42.704;23.304;2023-03-03T18:43:52;15.00;;;10.20;;
42006;SDS011;27696;42.704;23.304;2023-03-03T18:48:48;14.52;;;9.48;;
42006;SDS011;27696;42.704;23.304;2023-03-03T18:56:44;12.02;;;9.00;;
42006;SDS011;27696;42.704;23.304;2023-03-03T19:02:41;11.45;;;8.05;;
42006;SDS011;27696;42.704;23.304;2023-03-03T19:05:36;9.13;;;7.03;;
42006;SDS011;27696;42.704;23.304;2023-03-03T19:16:58;8.00;;;5.53;;
42006;SDS011;27696;42.704;23.304;2023-03-03T19:20:00;8.00;;;5.72;;
42006;SDS011;27696;42.704;23.304;2023-03-03T19:22:27;6.70;;;5.38;;
42006;SDS011;27696;42.704;23.304;2023-03-03T19:25:02;7.13;;;5.70;;
42006;SDS011;27696;42.704;23.304;2023-03-03T19:36:01;5.60;;;4.35;;
42006;SDS011;27696;42.704;23.304;2023-03-03T19:41:54;6.28;;;5.07;;
42006;SDS011;27696;42.704;23.304;2023-03-03T19:48:19;6.43;;;5.78;;
42006;SDS011;27696;42.704;23.304;2023-03-03T19:58:30;8.82;;;7.20;;
42006;SDS011;27696;42.704;23.304;2023-03-03T20:01:58;8.93;;;7.07;;
42006;SDS011;27696;42.704;23.304;2023-03-03T20:04:28;7.82;;;6.80;;
42006;SDS011;27696;42.704;23.304;2023-03-03T20:15:07;11.35;;;8.13;;
42006;SDS011;27696;42.704;23.304;2023-03-03T20:17:41;9.35;;;7.65;;
42006;SDS011;27696;42.704;23.304;2023-03-03T20:21:08;9.57;;;8.55;;
42006;SDS011;27696;42.704;23.304;2023-03-03T20:23:11;10.68;;;7.75;;
42006;SDS011;27696;42.704;23.304;2023-03-03T20:28:36;9.43;;;7.97;;
42006;SDS011;27696;42.704;23.304;2023-03-03T20:31:36;14.38;;;9.73;;
42006;SDS011;27696;42.704;23.304;2023-03-03T20:39:08;10.52;;;8.40;;
42006;SDS011;27696;42.704;23.304;2023-03-03T20:42:13;9.98;;;8.05;;
42006;SDS011;27696;42.704;23.304;2023-03-03T20:47:38;8.90;;;7.85;;
42006;SDS011;27696;42.704;23.304;2023-03-03T20:53:04;9.10;;;8.13;;
42006;SDS011;27696;42.704;23.304;2023-03-03T20:58:20;12.63;;;8.75;;
42006;SDS011;27696;42.704;23.304;2023-03-03T21:03:31;10.65;;;8.65;;
42006;SDS011;27696;42.704;23.304;2023-03-03T21:08:38;10.68;;;9.57;;
42006;SDS011;27696;42.704;23.304;2023-03-03T21:11:03;12.43;;;9.90;;
42006;SDS011;27696;42.704;23.304;2023-03-03T21:19:02;11.00;;;9.90;;
42006;SDS011;27696;42.704;23.304;2023-03-03T21:21:30;12.20;;;10.07;;